Time;durP1;ratioP1;P1;durP2;ratioP2;P2;SDS_P1;SDS_P2;PMS_P1;PMS_P2;Temp;Humidity;BMP_temperature;BMP_pressure;BME280_temperature;BME280_humidity;BME280_pressure;Samples;Min_cycle;Max_cycle;Signal;HPM_P1;HPM_P2
2022/01/24 06:02:11;;;;;;;;;;;;;;;1.83;100.00;99671.72;5284465;24;20250;-69
2022/01/24 06:04:39;;;;;;;;;;;;;;;1.81;100.00;99680.28;4812350;29;19957;-67
2022/01/24 06:07:06;;;;;;;;;;;;;;;1.73;100.00;99686.53;4828578;29;19965;-67
2022/01/24 06:09:33;;;;;;;;;;;;;;;1.65;100.00;99678.97;4828654;29;19979;-67
2022/01/24 06:12:01;;;;;;;;;;;;;;;1.55;100.00;99690.19;4828214;29;19954;-67
2022/01/24 06:14:28;;;;;;;;;;;;;;;1.48;100.00;99699.97;4828074;29;19953;-67
2022/01/24 06:16:56;;;;;;;;;;;;;;;1.41;100.00;99699.56;4815735;29;20244;-67
2022/01/24 06:19:43;;;;;;;;;;;;;;;;;;;;;
2022/01/24 06:22:51;;;;;;;;;;;;;;;1.34;100.00;99694.44;4798861;29;20248;-67
2022/01/24 06:25:39;;;;;;;;;;;;;;;;;;;;;
2022/01/24 06:28:56;;;;;;;;;;;;;;;1.04;100.00;99706.00;4737646;30;19960;-68
2022/01/24 06:31:26;;;;;;;;;;;;;;;0.93;100.00;99707.28;4745666;30;19975;-69
2022/01/24 06:33:56;;;;;;;;;;;;;;;0.86;100.00;99712.34;4751599;30;19956;-69
2022/01/24 06:36:44;;;;;;;;;;;;;;;;;;;;;
2022/01/24 06:39:53;;;;;;;;;;;;;;;;;;;;;
2022/01/24 06:43:13;;;;;;;;;;;;;;;;;;;;;
2022/01/24 06:46:30;;;;;;;;;;;;;;;0.70;100.00;99716.47;5079988;28;20003;-69
2022/01/24 06:48:57;;;;;;;;;;;;;;;0.68;100.00;99717.56;5098415;28;19963;-69
2022/01/24 06:51:25;;;;;;;;;;;;;;;0.68;100.00;99711.25;5093912;28;19954;-68
2022/01/24 06:53:53;;;;;;;;;;;;;;;0.63;100.00;99717.66;5090794;28;19958;-68
2022/01/24 06:56:40;;;;;;;;;;;;;;;;;;;;;
2022/01/24 07:00:30;;;;;;;;;;;;;;;;;;;;;
2022/01/24 07:03:55;;;;;;;;;;;;;;;0.75;100.00;99728.22;4763839;29;19961;-68
2022/01/24 07:06:42;;;;;;;;;;;;;;;0.77;100.00;99722.41;4769847;29;19951;-68
2022/01/24 07:09:28;;;;;;;;;;;;;;;0.84;100.00;99722.84;4776564;29;19947;-68
2022/01/24 07:12:14;;;;;;;;;;;;;;;;;;;;;
2022/01/24 07:16:05;;;;;;;;;;;;;;;0.97;100.00;99719.34;4865554;29;20932;-68
2022/01/24 07:19:03;;;;;;;;;;;;;;;1.08;100.00;99720.78;4943464;28;19957;-68
2022/01/24 07:21:39;;;;;;;;;;;;;;;1.75;100.00;99728.41;5045271;28;19972;-69
2022/01/24 07:24:06;;;;;;;;;;;;;;;2.71;100.00;99742.09;5081212;28;19963;-68
2022/01/24 07:26:42;;;;;;;;;;;;;;;4.04;100.00;99750.28;5085597;28;19960;-69
2022/01/24 07:29:09;;;;;;;;;;;;;;;5.48;100.00;99739.69;5084870;28;20259;-69
2022/01/24 07:31:37;;;;;;;;;;;;;;;6.57;100.00;99749.91;5079821;28;20414;-68
2022/01/24 07:34:04;;;;;;;;;;;;;;;7.33;100.00;99755.22;5085515;28;19978;-68
2022/01/24 07:36:31;;;;;;;;;;;;;;;8.95;100.00;99772.75;5085298;28;19951;-68
2022/01/24 07:38:58;;;;;;;;;;;;;;;9.68;100.00;99773.31;5089687;28;19945;-68
2022/01/24 07:41:29;;;;;;;;;;;;;;;10.54;100.00;99772.47;5086936;28;19981;-69
2022/01/24 07:44:16;;;;;;;;;;;;;;;11.27;100.00;99783.00;5083318;28;19953;-69
2022/01/24 07:46:44;;;;;;;;;;;;;;;11.97;100.00;99783.66;5082687;28;20380;-69
2022/01/24 07:49:12;;;;;;;;;;;;;;;11.02;100.00;99781.59;5080327;28;19951;-69
2022/01/24 07:51:42;;;;;;;;;;;;;;;11.01;100.00;99775.19;5082394;28;19954;-69
2022/01/24 07:54:10;;;;;;;;;;;;;;;11.33;100.00;99777.88;5068661;28;19953;-69
2022/01/24 07:56:38;;;;;;;;;;;;;;;11.75;98.36;99778.81;5070424;28;19946;-69
2022/01/24 07:59:26;;;;;;;;;;;;;;;;;;;;;
2022/01/24 08:02:13;;;;;;;;;;;;;;;13.96;85.69;99803.25;5069241;28;19971;-69
2022/01/24 08:04:40;;;;;;;;;;;;;;;15.24;76.48;99806.03;5070569;28;19955;-69
2022/01/24 08:07:08;;;;;;;;;;;;;;;15.27;73.78;99796.81;5070654;28;20494;-69
2022/01/24 08:09:55;;;;;;;;;;;;;;;15.37;70.49;99801.72;5067990;28;19951;-69
2022/01/24 08:12:23;;;;;;;;;;;;;;;15.97;69.64;99807.66;5069146;28;20336;-69
2022/01/24 08:15:14;;;;;;;;;;;;;;;;;;;;;
2022/01/24 08:18:59;;;;;;;;;;;;;;;;;;;;;
2022/01/24 08:22:46;;;;;;;;;;;;;;;;;;;;;
2022/01/24 08:26:02;;;;;;;;;;;;;;;;;;;;;
2022/01/24 08:29:51;;;;;;;;;;;;;;;;;;;;;
2022/01/24 08:33:40;;;;;;;;;;;;;;;18.90;48.09;99824.13;4809968;29;19948;-69
2022/01/24 08:36:36;;;;;;;;;;;;;;;;;;;;;
2022/01/24 08:40:27;;;;;;;;;;;;;;;;;;;;;
2022/01/24 08:44:21;;;;;;;;;;;;;;;15.59;57.60;99819.59;4810767;29;19947;-69
2022/01/24 08:47:21;;;;;;;;;;;;;;;;;;;;;
2022/01/24 08:51:11;;;;;;;;;;;;;;;;;;;;;
2022/01/24 08:54:49;;;;;;;;;;;;;;;10.39;84.68;99812.41;4812102;29;20067;-69
2022/01/24 08:57:50;;;;;;;;;;;;;;;9.80;91.13;99809.63;5084621;28;19958;-69
2022/01/24 09:00:37;;;;;;;;;;;;;;;;;;;;;
2022/01/24 09:04:08;;;;;;;;;;;;;;;;;;;;;
2022/01/24 09:07:20;;;;;;;;;;;;;;;;;;;;;
2022/01/24 09:11:07;;;;;;;;;;;;;;;;;;;;;
2022/01/24 09:14:39;;;;;;;;;;;;;;;8.32;100.00;99809.72;4820264;29;20379;-69
2022/01/24 09:17:34;;;;;;;;;;;;;;;;;;;;;
2022/01/24 09:21:23;;;;;;;;;;;;;;;;;;;;;
2022/01/24 09:25:25;;;;;;;;;;;;;;;;;;;;;
2022/01/24 09:28:45;;;;;;;;;;;;;;;;;;;;;
2022/01/24 09:32:34;;;;;;;;;;;;;;;;;;;;;
2022/01/24 09:36:23;;;;;;;;;;;;;;;7.13;100.00;99804.13;4757334;30;20086;-68
2022/01/24 09:39:19;;;;;;;;;;;;;;;;;;;;;
2022/01/24 09:43:23;;;;;;;;;;;;;;;;;;;;;
2022/01/24 09:47:12;;;;;;;;;;;;;;;6.32;100.00;99826.66;4708402;30;19954;-68
2022/01/24 09:50:12;;;;;;;;;;;;;;;;;;;;;
2022/01/24 09:54:03;;;;;;;;;;;;;;;;;;;;;
2022/01/24 09:57:18;;;;;;;;;;;;;;;;;;;;;
2022/01/24 10:01:05;;;;;;;;;;;;;;;5.65;100.00;99831.22;4808519;29;19987;-68
2022/01/24 10:04:21;;;;;;;;;;;;;;;;;;;;;
2022/01/24 10:08:09;;;;;;;;;;;;;;;;;;;;;
2022/01/24 10:11:36;;;;;;;;;;;;;;;5.03;100.00;99841.81;4846059;29;20714;-68
2022/01/24 10:18:24;;;;;;;;;;;;;;;;;;;;;
2022/01/24 10:22:26;;;;;;;;;;;;;;;;;;;;;
2022/01/24 10:25:47;;;;;;;;;;;;;;;;;;;;;
2022/01/24 10:29:36;;;;;;;;;;;;;;;;;;;;;
2022/01/24 10:33:25;;;;;;;;;;;;;;;5.89;100.00;99817.66;4774604;29;19966;-68
2022/01/24 10:36:26;;;;;;;;;;;;;;;;;;;;;
2022/01/24 10:40:20;;;;;;;;;;;;;;;;;;;;;
2022/01/24 10:44:17;;;;;;;;;;;;;;;;;;;;;
2022/01/24 10:47:49;;;;;;;;;;;;;;;;;;;;;
2022/01/24 10:51:37;;;;;;;;;;;;;;;;;;;;;
2022/01/24 10:55:45;;;;;;;;;;;;;;;;;;;;;
2022/01/24 10:59:05;;;;;;;;;;;;;;;;;;;;;
2022/01/24 11:02:54;;;;;;;;;;;;;;;;;;;;;
2022/01/24 11:07:02;;;;;;;;;;;;;;;;;;;;;
2022/01/24 11:10:23;;;;;;;;;;;;;;;;;;;;;
2022/01/24 11:14:15;;;;;;;;;;;;;;;;;;;;;
2022/01/24 11:18:00;;;;;;;;;;;;;;;6.91;100.00;99779.44;4784441;29;19962;-69
2022/01/24 11:21:05;;;;;;;;;;;;;;;;;;;;;
2022/01/24 11:24:51;;;;;;;;;;;;;;;;;;;;;
2022/01/24 11:28:34;;;;;;;;;;;;;;;7.00;100.00;99780.16;4838765;29;19953;-68
2022/01/24 11:31:41;;;;;;;;;;;;;;;;;;;;;
2022/01/24 11:35:30;;;;;;;;;;;;;;;;;;;;;
2022/01/24 11:39:19;;;;;;;;;;;;;;;7.03;100.00;99760.84;4785588;29;20558;-68
2022/01/24 11:42:20;;;;;;;;;;;;;;;;;;;;;
2022/01/24 11:46:25;;;;;;;;;;;;;;;;;;;;;
2022/01/24 11:50:15;;;;;;;;;;;;;;;6.92;100.00;99756.03;4799282;29;20344;-69
2022/01/24 11:53:15;;;;;;;;;;;;;;;;;;;;;
2022/01/24 11:57:04;;;;;;;;;;;;;;;;;;;;;
2022/01/24 12:00:54;;;;;;;;;;;;;;;7.01;100.00;99746.47;4790578;29;20392;-68
2022/01/24 12:03:54;;;;;;;;;;;;;;;;;;;;;
2022/01/24 12:07:49;;;;;;;;;;;;;;;;;;;;;
2022/01/24 12:11:40;;;;;;;;;;;;;;;;;;;;;
2022/01/24 12:18:09;;;;;;;;;;;;;;;;;;;;;
2022/01/24 12:21:38;;;;;;;;;;;;;;;;;;;;;
2022/01/24 12:25:41;;;;;;;;;;;;;;;;;;;;;
2022/01/24 12:29:25;;;;;;;;;;;;;;;6.03;100.00;99734.16;4884231;29;19956;-69
2022/01/24 12:32:27;;;;;;;;;;;;;;;;;;;;;
2022/01/24 12:36:14;;;;;;;;;;;;;;;;;;;;;
2022/01/24 12:40:04;;;;;;;;;;;;;;;;;;;;;
2022/01/24 12:43:40;;;;;;;;;;;;;;;;;;;;;
2022/01/24 12:47:12;;;;;;;;;;;;;;;;;;;;;
2022/01/24 12:51:16;;;;;;;;;;;;;;;;;;;;;
2022/01/24 12:54:34;;;;;;;;;;;;;;;;;;;;;
2022/01/24 12:58:23;;;;;;;;;;;;;;;;;;;;;
2022/01/24 13:02:12;;;;;;;;;;;;;;;5.51;100.00;99717.63;4819617;29;19954;-69
2022/01/24 13:05:08;;;;;;;;;;;;;;;;;;;;;
2022/01/24 13:08:17;;;;;;;;;;;;;;;;;;;;;
2022/01/24 13:12:05;;;;;;;;;;;;;;;;;;;;;
2022/01/24 13:26:08;;;;;;;;;;;;;;;;;;;;;
2022/01/24 13:29:03;;;;;;;;;;;;;;;;;;;;;
2022/01/24 13:32:17;;;;;;;;;;;;;;;4.86;100.00;99733.69;4760231;29;20003;-69
2022/01/24 13:35:16;;;;;;;;;;;;;;;4.45;100.00;99734.94;5103574;27;19950;-69
2022/01/24 13:37:43;;;;;;;;;;;;;;;4.51;100.00;99741.13;5101747;28;19946;-69
2022/01/24 13:40:11;;;;;;;;;;;;;;;4.42;100.00;99746.66;5103792;28;19979;-69
2022/01/24 13:42:41;;;;;;;;;;;;;;;4.33;100.00;99751.34;5100417;28;19965;-69
2022/01/24 13:45:08;;;;;;;;;;;;;;;4.25;100.00;99756.88;5103706;28;19950;-70
2022/01/24 13:47:35;;;;;;;;;;;;;;;4.12;100.00;99752.25;5103754;28;19954;-69
2022/01/24 13:50:03;;;;;;;;;;;;;;;4.07;100.00;99747.69;5101033;28;19955;-69
2022/01/24 13:53:03;;;;;;;;;;;;;;;4.07;100.00;99744.09;5101937;28;20239;-69
2022/01/24 13:55:30;;;;;;;;;;;;;;;3.99;100.00;99752.06;5099290;28;19948;-69
2022/01/24 13:57:58;;;;;;;;;;;;;;;3.84;100.00;99752.47;5101989;28;19957;-69
2022/01/24 14:00:27;;;;;;;;;;;;;;;3.83;100.00;99750.84;5103156;28;19960;-69
2022/01/24 14:03:08;;;;;;;;;;;;;;;3.87;100.00;99762.09;5103478;28;19959;-69
2022/01/24 14:05:48;;;;;;;;;;;;;;;3.69;100.00;99757.63;5102033;28;19959;-68
2022/01/24 14:08:16;;;;;;;;;;;;;;;3.79;100.00;99771.97;5101714;28;20025;-69
2022/01/24 14:10:43;;;;;;;;;;;;;;;3.71;100.00;99770.00;5101464;28;19952;-69
2022/01/24 14:13:20;;;;;;;;;;;;;;;3.51;100.00;99765.00;5101610;28;19965;-68
2022/01/24 14:15:58;;;;;;;;;;;;;;;3.48;100.00;99771.13;5101637;28;19947;-69
2022/01/24 14:18:29;;;;;;;;;;;;;;;3.49;100.00;99783.84;5102264;28;20334;-69
2022/01/24 14:21:08;;;;;;;;;;;;;;;3.52;100.00;99769.38;5102629;28;19965;-69
2022/01/24 14:23:37;;;;;;;;;;;;;;;3.51;100.00;99773.28;5100550;28;19950;-68
2022/01/24 14:26:13;;;;;;;;;;;;;;;3.49;100.00;99767.25;5101017;28;19957;-69
2022/01/24 14:28:41;;;;;;;;;;;;;;;3.39;100.00;99773.03;5101624;27;19950;-69
2022/01/24 14:31:13;;;;;;;;;;;;;;;3.18;100.00;99783.75;5103100;28;19955;-69
2022/01/24 14:33:42;;;;;;;;;;;;;;;3.14;100.00;99781.94;5094638;28;19982;-69
2022/01/24 14:36:17;;;;;;;;;;;;;;;3.00;100.00;99786.72;5100833;28;20562;-69
2022/01/24 14:38:53;;;;;;;;;;;;;;;2.87;100.00;99782.03;5101833;28;19951;-69
2022/01/24 14:41:26;;;;;;;;;;;;;;;2.92;100.00;99785.50;5100045;28;19960;-69
2022/01/24 14:46:42;;;;;;;;;;;;;;;2.82;100.00;99804.25;5084678;28;20534;-69
2022/01/24 14:49:15;;;;;;;;;;;;;;;2.66;100.00;99812.06;5094775;28;19953;-68
2022/01/24 14:51:44;;;;;;;;;;;;;;;2.81;100.00;99810.91;5095119;28;19947;-68
2022/01/24 14:54:16;;;;;;;;;;;;;;;2.76;100.00;99813.78;5091418;28;19998;-69
2022/01/24 14:56:45;;;;;;;;;;;;;;;2.80;100.00;99806.50;5086266;28;20107;-69
2022/01/24 14:59:13;;;;;;;;;;;;;;;2.78;100.00;99819.81;5088540;28;19961;-69
2022/01/24 15:01:40;;;;;;;;;;;;;;;2.68;100.00;99829.13;5085028;28;19956;-69
2022/01/24 15:04:08;;;;;;;;;;;;;;;2.63;100.00;99823.72;5088029;28;19952;-69
2022/01/24 15:06:35;;;;;;;;;;;;;;;2.54;100.00;99815.34;5083331;28;19975;-69
2022/01/24 15:09:05;;;;;;;;;;;;;;;2.41;100.00;99820.88;5084731;28;19947;-69
2022/01/24 15:11:34;;;;;;;;;;;;;;;2.47;100.00;99822.44;5087675;28;20279;-69
2022/01/24 15:14:08;;;;;;;;;;;;;;;2.44;100.00;99823.84;5086699;28;20382;-68
2022/01/24 15:27:09;;;;;;;;;;;;;;;2.19;100.00;99829.06;5086679;28;19955;-69
2022/01/24 15:29:36;;;;;;;;;;;;;;;2.10;100.00;99830.88;5086620;28;19950;-68
2022/01/24 15:32:04;;;;;;;;;;;;;;;2.12;100.00;99826.69;5084810;28;19964;-69
2022/01/24 15:34:33;;;;;;;;;;;;;;;2.13;100.00;99830.28;5087399;28;19974;-69
2022/01/24 15:37:01;;;;;;;;;;;;;;;2.19;100.00;99843.66;5085996;28;19954;-69
2022/01/24 15:39:29;;;;;;;;;;;;;;;2.16;100.00;99846.22;5087516;28;19959;-69
2022/01/24 15:42:01;;;;;;;;;;;;;;;2.13;100.00;99849.59;5086259;28;19955;-69
2022/01/24 15:49:28;;;;;;;;;;;;;;;2.06;100.00;99851.91;5085922;28;19982;-69
2022/01/24 15:51:55;;;;;;;;;;;;;;;2.20;100.00;99848.06;5086454;28;19957;-69
2022/01/24 15:54:25;;;;;;;;;;;;;;;2.21;100.00;99846.94;5087079;28;20083;-69
2022/01/24 15:59:39;;;;;;;;;;;;;;;2.12;100.00;99850.72;5086071;28;19947;-69
2022/01/24 16:02:07;;;;;;;;;;;;;;;2.10;100.00;99851.03;5087121;28;19953;-68
2022/01/24 16:04:35;;;;;;;;;;;;;;;2.04;100.00;99852.22;5087167;28;19955;-69
2022/01/24 16:07:02;;;;;;;;;;;;;;;2.03;100.00;99844.28;5086090;28;20241;-69
2022/01/24 16:09:29;;;;;;;;;;;;;;;2.12;100.00;99853.47;5086708;28;19956;-69
2022/01/24 16:11:57;;;;;;;;;;;;;;;2.13;100.00;99855.13;5086929;28;20032;-68
2022/01/24 16:14:25;;;;;;;;;;;;;;;2.19;100.00;99859.41;5085690;28;19980;-68
2022/01/24 16:16:53;;;;;;;;;;;;;;;2.25;100.00;99858.19;5088083;28;19950;-68
2022/01/24 16:19:23;;;;;;;;;;;;;;;2.26;100.00;99860.63;5085916;28;20330;-68
2022/01/24 16:27:19;;;;;;;;;;;;;;;2.36;100.00;99873.44;5086143;28;19964;-69
2022/01/24 16:29:49;;;;;;;;;;;;;;;2.35;100.00;99871.78;5086681;28;19957;-69
2022/01/24 16:32:16;;;;;;;;;;;;;;;2.36;100.00;99878.94;5083486;28;19959;-68
2022/01/24 16:34:43;;;;;;;;;;;;;;;2.27;100.00;99878.84;5087387;28;19978;-68
2022/01/24 16:37:11;;;;;;;;;;;;;;;2.32;100.00;99886.22;5086148;28;19966;-68
2022/01/24 16:39:39;;;;;;;;;;;;;;;2.35;100.00;99885.56;5084490;28;19958;-69
2022/01/24 16:42:13;;;;;;;;;;;;;;;2.39;100.00;99883.88;5085053;28;19950;-68
2022/01/24 16:44:56;;;;;;;;;;;;;;;2.41;100.00;99890.72;5086043;28;19948;-69
2022/01/24 16:47:34;;;;;;;;;;;;;;;2.49;100.00;99891.94;5086004;28;19950;-69
2022/01/24 16:50:01;;;;;;;;;;;;;;;2.45;100.00;99888.16;5085136;28;19965;-69
2022/01/24 16:52:31;;;;;;;;;;;;;;;2.39;100.00;99881.94;5085532;28;19982;-68
2022/01/24 16:54:58;;;;;;;;;;;;;;;2.45;100.00;99890.91;5081864;28;19972;-69
2022/01/24 16:57:26;;;;;;;;;;;;;;;2.40;100.00;99885.47;5083828;28;19951;-68
2022/01/24 16:59:53;;;;;;;;;;;;;;;2.34;100.00;99895.81;5083207;28;19955;-69
2022/01/24 17:02:20;;;;;;;;;;;;;;;2.32;100.00;99892.56;5085650;28;19961;-69
2022/01/24 17:04:47;;;;;;;;;;;;;;;2.37;100.00;99899.91;5085686;28;19957;-69
2022/01/24 17:07:16;;;;;;;;;;;;;;;2.40;100.00;99905.63;5086000;28;19957;-69
2022/01/24 17:09:43;;;;;;;;;;;;;;;2.39;100.00;99908.72;5086790;28;20354;-68
2022/01/24 17:12:11;;;;;;;;;;;;;;;2.43;100.00;99898.69;5085023;28;19955;-68
2022/01/24 17:14:39;;;;;;;;;;;;;;;2.46;100.00;99909.13;5083187;28;20370;-68
2022/01/24 17:17:06;;;;;;;;;;;;;;;2.43;100.00;99910.53;5086845;28;19955;-68
2022/01/24 17:19:33;;;;;;;;;;;;;;;2.49;100.00;99914.84;5085839;28;19950;-68
2022/01/24 17:22:01;;;;;;;;;;;;;;;2.40;100.00;99915.84;5080977;28;20341;-68
2022/01/24 17:24:29;;;;;;;;;;;;;;;2.41;100.00;99914.72;5091015;28;19948;-68
2022/01/24 17:27:18;;;;;;;;;;;;;;;2.39;100.00;99926.09;5094346;28;20264;-69
2022/01/24 17:29:46;;;;;;;;;;;;;;;2.26;100.00;99924.13;5093676;28;19950;-68
2022/01/24 17:32:13;;;;;;;;;;;;;;;2.21;100.00;99917.88;5092396;28;19962;-68
2022/01/24 17:34:40;;;;;;;;;;;;;;;2.32;100.00;99931.19;5085655;28;19979;-69
2022/01/24 17:37:08;;;;;;;;;;;;;;;2.26;100.00;99937.91;5089331;28;20264;-68
2022/01/24 17:39:35;;;;;;;;;;;;;;;2.33;100.00;99946.63;5091311;28;20388;-69
